createdAt,value
2023-04-07T00:01:31.918Z,39.77
2023-04-07T00:03:59.524Z,37.17
2023-04-07T00:06:26.913Z,39.80
2023-04-07T00:08:54.026Z,43.80
2023-04-07T00:11:21.156Z,51.23
2023-04-07T00:13:49.528Z,44.67
2023-04-07T00:16:16.723Z,48.07
2023-04-07T00:18:43.916Z,39.30
2023-04-07T00:21:11.022Z,43.00
2023-04-07T00:23:38.176Z,39.53
2023-04-07T00:26:05.278Z,37.43
2023-04-07T00:28:32.392Z,40.80
2023-04-07T00:31:00.852Z,49.83
2023-04-07T00:33:27.998Z,47.10
2023-04-07T00:35:55.122Z,53.67
2023-04-07T00:38:22.254Z,50.67
2023-04-07T00:40:49.367Z,45.77
2023-04-07T00:43:16.591Z,53.33
2023-04-07T00:45:44.097Z,43.23
2023-04-07T00:48:12.497Z,46.63
2023-04-07T00:50:39.725Z,46.20
2023-04-07T00:53:07.302Z,52.27
2023-04-07T00:55:34.831Z,49.10
2023-04-07T00:58:01.858Z,47.30
2023-04-07T01:00:29.062Z,52.03
2023-04-07T01:02:58.383Z,53.63
2023-04-07T01:05:37.255Z,53.83
2023-04-07T01:08:08.693Z,54.83
2023-04-07T01:10:38.228Z,51.90
2023-04-07T01:13:19.602Z,60.17
2023-04-07T01:15:48.301Z,59.60
2023-04-07T01:18:18.220Z,52.90
2023-04-07T01:20:48.654Z,50.87
2023-04-07T01:23:18.295Z,52.10
2023-04-07T01:26:00.967Z,59.03
2023-04-07T01:28:39.710Z,65.23
2023-04-07T01:31:09.401Z,54.97
2023-04-07T01:33:37.840Z,54.83
2023-04-07T01:36:05.713Z,62.80
2023-04-07T01:38:33.970Z,55.33
2023-04-07T01:41:01.316Z,61.50
2023-04-07T01:43:28.953Z,55.57
2023-04-07T01:45:57.157Z,58.53
2023-04-07T01:48:26.251Z,61.57
2023-04-07T01:50:54.248Z,62.17
2023-04-07T01:53:21.818Z,66.20
2023-04-07T01:55:48.889Z,62.77
2023-04-07T01:58:16.007Z,62.93
2023-04-07T02:00:43.953Z,60.83
2023-04-07T02:03:19.207Z,64.13
2023-04-07T02:05:48.118Z,63.40
2023-04-07T02:08:16.722Z,71.67
2023-04-07T02:10:44.376Z,78.83
2023-04-07T02:13:14.072Z,73.40
2023-04-07T02:15:41.731Z,63.90
2023-04-07T02:18:09.339Z,67.63
2023-04-07T02:20:38.028Z,78.00
2023-04-07T02:23:08.140Z,76.67
2023-04-07T02:25:36.366Z,73.77
2023-04-07T02:28:03.438Z,73.80
2023-04-07T02:30:30.688Z,77.27
2023-04-07T02:32:57.970Z,86.20
2023-04-07T02:35:25.218Z,88.83
2023-04-07T02:37:52.377Z,81.17
2023-04-07T02:40:20.856Z,82.87
2023-04-07T02:42:48.050Z,80.47
2023-04-07T02:45:15.218Z,81.97
2023-04-07T02:47:42.424Z,87.97
2023-04-07T02:50:10.002Z,98.80
2023-04-07T02:52:37.173Z,93.63
2023-04-07T02:55:10.803Z,100.13
2023-04-07T02:57:39.418Z,99.77
2023-04-07T03:00:11.748Z,93.80
2023-04-07T03:02:53.663Z,93.57
2023-04-07T03:05:21.015Z,98.43
2023-04-07T03:07:48.104Z,124.53
2023-04-07T03:10:15.196Z,107.40
2023-04-07T03:12:43.610Z,105.07
2023-04-07T03:15:11.515Z,107.87
2023-04-07T03:17:40.420Z,105.57
2023-04-07T03:20:08.235Z,113.30
2023-04-07T03:22:37.606Z,106.13
2023-04-07T03:25:08.817Z,103.33
2023-04-07T03:27:35.928Z,93.27
2023-04-07T03:30:05.297Z,94.40
2023-04-07T03:32:32.544Z,96.07
2023-04-07T03:34:59.779Z,85.40
2023-04-07T03:37:26.880Z,86.57
2023-04-07T03:39:55.131Z,75.97
2023-04-07T03:42:26.474Z,83.37
2023-04-07T03:44:59.575Z,77.67
2023-04-07T03:47:28.205Z,76.67
2023-04-07T03:49:59.821Z,63.87
2023-04-07T03:52:28.003Z,76.03
2023-04-07T03:55:02.023Z,78.80
2023-04-07T03:57:32.134Z,64.80
2023-04-07T03:59:59.198Z,67.53
2023-04-07T04:02:27.765Z,64.70
2023-04-07T04:04:56.266Z,65.83
2023-04-07T04:07:24.094Z,55.13
2023-04-07T04:09:53.910Z,61.47
2023-04-07T04:12:21.778Z,59.87
2023-04-07T04:14:59.873Z,64.20
2023-04-07T04:17:28.696Z,55.27
2023-04-07T04:19:56.054Z,68.73
2023-04-07T04:22:37.003Z,61.90
2023-04-07T04:25:05.098Z,64.90
2023-04-07T04:27:32.448Z,60.73
2023-04-07T04:30:05.886Z,64.10
2023-04-07T04:32:42.169Z,68.50
2023-04-07T04:35:10.090Z,53.90
2023-04-07T04:37:45.596Z,56.27
2023-04-07T04:40:14.631Z,48.63
2023-04-07T04:42:43.705Z,50.67
2023-04-07T04:45:12.561Z,51.00
2023-04-07T04:47:45.405Z,51.87
2023-04-07T04:50:12.880Z,47.87
2023-04-07T04:52:42.118Z,42.43
2023-04-07T04:55:16.179Z,46.47
2023-04-07T04:57:44.378Z,50.10
2023-04-07T05:00:14.913Z,47.17
2023-04-07T05:02:46.027Z,46.37
2023-04-07T05:05:13.479Z,44.87
2023-04-07T05:07:40.733Z,42.37
2023-04-07T05:10:10.115Z,46.97
2023-04-07T05:12:40.721Z,36.20
2023-04-07T05:15:08.321Z,42.73
2023-04-07T05:17:35.709Z,35.80
2023-04-07T05:20:04.873Z,33.90
2023-04-07T05:22:38.045Z,36.60
2023-04-07T05:25:07.883Z,35.23
2023-04-07T05:27:35.003Z,31.13
2023-04-07T05:30:08.609Z,39.37
2023-04-07T05:32:36.065Z,42.13
2023-04-07T05:35:11.336Z,33.97
2023-04-07T05:37:44.313Z,43.67
2023-04-07T05:40:12.407Z,37.30
2023-04-07T05:42:39.997Z,34.57
2023-04-07T05:45:08.107Z,34.87
2023-04-07T05:47:38.469Z,35.73
2023-04-07T05:50:06.096Z,30.93
2023-04-07T05:52:36.578Z,35.53
2023-04-07T05:55:16.321Z,31.70
2023-04-07T05:57:43.425Z,36.07
2023-04-07T06:00:11.211Z,41.73
2023-04-07T06:02:41.588Z,27.90
2023-04-07T06:05:14.555Z,28.77
2023-04-07T06:07:43.122Z,37.90
2023-04-07T06:10:10.902Z,30.57
2023-04-07T06:12:38.078Z,31.53
2023-04-07T06:15:05.334Z,27.13
2023-04-07T06:17:32.397Z,28.33
2023-04-07T06:19:59.480Z,29.23
2023-04-07T06:22:26.546Z,28.97
2023-04-07T06:24:55.002Z,29.43
2023-04-07T06:27:22.196Z,33.90
2023-04-07T06:29:49.280Z,29.73
2023-04-07T06:32:16.306Z,25.77
2023-04-07T06:34:43.400Z,30.90
2023-04-07T06:37:10.621Z,30.77
2023-04-07T06:39:37.776Z,26.90
2023-04-07T06:42:06.327Z,24.10
2023-04-07T06:44:38.114Z,26.03
2023-04-07T06:47:05.422Z,30.20
2023-04-07T06:49:32.549Z,33.33
2023-04-07T06:51:59.597Z,30.67
2023-04-07T06:54:26.810Z,28.17
2023-04-07T06:56:54.668Z,29.63
2023-04-07T06:59:23.212Z,25.30
2023-04-07T07:01:50.378Z,26.07
2023-04-07T07:04:17.562Z,26.53
2023-04-07T07:06:44.720Z,27.00
2023-04-07T07:09:11.760Z,24.90
2023-04-07T07:11:38.849Z,27.10
2023-04-07T07:14:05.883Z,25.00
2023-04-07T07:16:34.260Z,21.77
2023-04-07T07:19:01.309Z,24.97
2023-04-07T07:21:28.396Z,23.77
2023-04-07T07:23:55.652Z,24.50
2023-04-07T07:26:22.708Z,19.70
2023-04-07T07:28:49.887Z,21.60
2023-04-07T07:31:17.001Z,21.73
2023-04-07T07:33:45.931Z,22.10
2023-04-07T07:36:13.228Z,25.80
2023-04-07T07:38:40.503Z,22.47
2023-04-07T07:41:07.706Z,19.43
2023-04-07T07:43:34.812Z,14.53
2023-04-07T07:46:02.125Z,21.03
2023-04-07T07:48:29.242Z,28.57
2023-04-07T07:50:57.720Z,28.03
2023-04-07T07:53:25.040Z,21.70
2023-04-07T07:55:52.161Z,30.90
2023-04-07T07:58:19.248Z,22.30
2023-04-07T08:00:46.432Z,21.70
2023-04-07T08:03:13.565Z,27.80
2023-04-07T08:05:40.743Z,22.03
2023-04-07T08:08:09.149Z,26.20
2023-04-07T08:10:36.218Z,22.03
2023-04-07T08:13:03.337Z,23.60
2023-04-07T08:15:30.396Z,27.67
2023-04-07T08:17:57.459Z,23.53
2023-04-07T08:20:24.629Z,25.53
2023-04-07T08:22:51.689Z,24.93
2023-04-07T08:25:20.288Z,20.53
2023-04-07T08:27:47.476Z,24.97
2023-04-07T08:30:14.836Z,31.50
2023-04-07T08:32:43.705Z,22.40
2023-04-07T08:35:11.025Z,25.53
2023-04-07T08:37:38.510Z,26.03
2023-04-07T08:40:06.215Z,24.20
2023-04-07T08:42:35.677Z,32.10
2023-04-07T08:45:03.846Z,22.13
2023-04-07T08:47:31.616Z,25.07
2023-04-07T08:50:01.061Z,26.60
2023-04-07T08:52:33.457Z,24.97
2023-04-07T08:55:00.975Z,28.83
2023-04-07T08:57:29.544Z,25.47
2023-04-07T08:59:58.780Z,28.30
2023-04-07T09:02:26.091Z,29.53
2023-04-07T09:04:53.292Z,28.83
2023-04-07T09:07:20.374Z,23.03
2023-04-07T09:09:47.429Z,24.30
2023-04-07T09:12:14.501Z,27.00
2023-04-07T09:14:41.511Z,28.67
2023-04-07T09:17:10.038Z,22.77
2023-04-07T09:19:37.273Z,27.07
2023-04-07T09:22:04.367Z,29.63
2023-04-07T09:24:31.450Z,21.53
2023-04-07T09:27:09.259Z,27.03
2023-04-07T09:29:36.381Z,31.97
2023-04-07T09:32:03.490Z,30.90
2023-04-07T09:34:33.389Z,27.83
2023-04-07T09:37:00.576Z,22.67
2023-04-07T09:39:27.606Z,30.53
2023-04-07T09:41:54.710Z,31.13
2023-04-07T09:44:22.249Z,34.43
2023-04-07T09:46:49.639Z,35.27
2023-04-07T09:49:16.858Z,32.33
2023-04-07T09:51:54.473Z,27.30
2023-04-07T09:54:34.785Z,30.60
2023-04-07T09:57:02.412Z,32.60
2023-04-07T09:59:29.978Z,30.90
2023-04-07T10:01:57.262Z,35.23
2023-04-07T10:04:24.685Z,33.53
2023-04-07T10:06:53.875Z,34.73
2023-04-07T10:09:21.084Z,38.10
2023-04-07T10:11:48.712Z,35.53
2023-04-07T10:14:16.039Z,35.37
2023-04-07T10:16:43.843Z,45.33
2023-04-07T10:19:11.325Z,33.93
2023-04-07T10:21:40.098Z,34.30
2023-04-07T10:24:14.846Z,34.60
2023-04-07T10:26:42.640Z,27.57
2023-04-07T10:29:12.182Z,32.77
2023-04-07T10:31:39.730Z,30.33
2023-04-07T10:34:06.978Z,32.80
2023-04-07T10:36:34.181Z,25.80
2023-04-07T10:39:21.295Z,27.23
2023-04-07T10:41:48.402Z,31.13
2023-04-07T10:44:33.927Z,27.50
2023-04-07T10:47:04.182Z,27.17
2023-04-07T10:49:31.303Z,22.27
2023-04-07T10:52:16.799Z,31.30
2023-04-07T10:54:45.281Z,28.10
2023-04-07T10:57:13.306Z,20.70
2023-04-07T10:59:41.936Z,24.23
2023-04-07T11:02:36.234Z,25.10
2023-04-07T11:05:03.769Z,25.53
2023-04-07T11:07:47.390Z,20.20
2023-04-07T11:10:16.397Z,18.73
2023-04-07T11:12:43.641Z,20.60
2023-04-07T11:15:20.603Z,19.00
2023-04-07T11:17:47.728Z,26.00
2023-04-07T11:20:14.910Z,23.57
2023-04-07T11:22:42.021Z,29.50
2023-04-07T11:25:22.564Z,19.03
2023-04-07T11:27:49.744Z,20.40
2023-04-07T11:30:17.172Z,19.60
2023-04-07T11:32:48.103Z,20.90
2023-04-07T11:35:15.219Z,25.23
2023-04-07T11:37:42.289Z,23.20
2023-04-07T11:40:10.145Z,19.80
2023-04-07T11:42:39.747Z,22.57
2023-04-07T11:45:08.397Z,29.63
2023-04-07T11:47:35.930Z,19.87
2023-04-07T11:50:03.117Z,21.40
2023-04-07T11:52:30.297Z,23.73
2023-04-07T11:54:57.409Z,18.93
2023-04-07T11:57:25.530Z,16.60
2023-04-07T12:00:05.809Z,16.10
2023-04-07T12:02:33.703Z,14.43
2023-04-07T12:05:01.081Z,16.90
2023-04-07T12:07:28.433Z,16.63
2023-04-07T12:09:55.772Z,17.23
2023-04-07T12:12:26.130Z,20.20
2023-04-07T12:14:54.723Z,19.77
2023-04-07T12:17:21.943Z,23.90
2023-04-07T12:19:49.010Z,21.57
2023-04-07T12:22:16.198Z,18.80
2023-04-07T12:24:43.352Z,18.60
2023-04-07T12:27:10.392Z,16.10
2023-04-07T12:29:37.441Z,16.13
2023-04-07T12:32:06.191Z,18.40
2023-04-07T12:34:33.313Z,16.23
2023-04-07T12:37:00.436Z,15.77
2023-04-07T12:39:27.542Z,15.93
2023-04-07T12:41:54.614Z,16.00
2023-04-07T12:44:21.708Z,20.90
2023-04-07T12:46:48.778Z,15.97
2023-04-07T12:49:17.217Z,15.80
2023-04-07T12:51:44.376Z,16.03
2023-04-07T12:54:11.414Z,21.37
2023-04-07T12:56:38.517Z,17.47
2023-04-07T12:59:05.594Z,15.80
2023-04-07T13:01:34.079Z,15.10
2023-04-07T13:04:01.542Z,18.10
2023-04-07T13:06:29.918Z,13.77
2023-04-07T13:08:56.993Z,15.07
2023-04-07T13:11:24.055Z,13.90
2023-04-07T13:13:51.307Z,18.37
2023-04-07T13:16:18.662Z,14.10
2023-04-07T13:18:45.760Z,15.40
2023-04-07T13:21:41.185Z,16.57
2023-04-07T13:24:01.259Z,12.03
2023-04-07T13:26:28.406Z,13.70
2023-04-07T13:28:55.462Z,13.23
2023-04-07T13:31:22.658Z,11.93
2023-04-07T13:33:49.976Z,15.60
2023-04-07T13:36:17.357Z,22.10
2023-04-07T13:38:44.472Z,16.00
2023-04-07T13:41:12.896Z,14.70
2023-04-07T13:43:39.902Z,17.87
2023-04-07T13:46:17.155Z,18.17
2023-04-07T13:48:51.932Z,17.47
2023-04-07T13:51:19.365Z,15.90
2023-04-07T13:53:46.605Z,21.57
2023-04-07T13:56:15.124Z,17.77
2023-04-07T13:58:42.265Z,15.93
2023-04-07T14:01:09.395Z,15.47
2023-04-07T14:03:36.540Z,17.80
2023-04-07T14:06:03.839Z,15.70
2023-04-07T14:08:30.901Z,22.20
2023-04-07T14:10:57.917Z,16.63
2023-04-07T14:13:26.388Z,18.90
2023-04-07T14:15:53.491Z,17.97
2023-04-07T14:18:20.596Z,15.13
2023-04-07T14:20:47.752Z,18.03
2023-04-07T14:23:18.632Z,18.37
2023-04-07T14:25:53.554Z,19.17
2023-04-07T14:28:20.606Z,23.03
2023-04-07T14:30:49.064Z,17.63
2023-04-07T14:33:16.266Z,20.47
2023-04-07T14:35:43.735Z,18.70
2023-04-07T14:38:10.879Z,18.60
2023-04-07T14:40:37.947Z,19.60
2023-04-07T14:43:07.178Z,27.37
2023-04-07T14:45:34.736Z,20.50
2023-04-07T14:48:03.272Z,22.60
2023-04-07T14:50:32.355Z,18.53
2023-04-07T14:52:59.435Z,22.57
2023-04-07T14:55:26.540Z,25.70
2023-04-07T14:57:53.763Z,17.00
2023-04-07T15:00:20.993Z,20.10
2023-04-07T15:02:48.276Z,17.97
2023-04-07T15:05:16.938Z,17.37
2023-04-07T15:07:44.044Z,18.50
2023-04-07T15:10:11.178Z,21.33
2023-04-07T15:12:38.211Z,19.10
2023-04-07T15:15:05.774Z,16.83
2023-04-07T15:17:43.128Z,19.83
2023-04-07T15:20:11.347Z,18.43
2023-04-07T15:22:39.831Z,19.23
2023-04-07T15:25:07.144Z,18.73
2023-04-07T15:27:34.303Z,23.37
2023-04-07T15:30:01.399Z,19.80
2023-04-07T15:32:30.895Z,16.30
2023-04-07T15:34:58.062Z,21.67
2023-04-07T15:37:25.350Z,19.37
2023-04-07T15:39:53.771Z,21.40
2023-04-07T15:42:20.878Z,16.97
2023-04-07T15:44:47.953Z,17.50
2023-04-07T15:47:14.999Z,18.13
2023-04-07T15:49:42.158Z,15.67
2023-04-07T15:52:09.384Z,18.40
2023-04-07T15:54:36.533Z,15.67
2023-04-07T15:57:05.009Z,15.63
2023-04-07T15:59:33.400Z,17.87
2023-04-07T16:02:00.673Z,15.73
2023-04-07T16:04:27.813Z,17.47
2023-04-07T16:06:54.918Z,23.20
2023-04-07T16:09:22.026Z,15.07
2023-04-07T16:11:49.069Z,16.50
2023-04-07T16:14:17.522Z,22.10
2023-04-07T16:16:44.681Z,20.73
2023-04-07T16:19:11.908Z,23.80
2023-04-07T16:21:39.492Z,20.60
2023-04-07T16:24:06.547Z,17.90
2023-04-07T16:26:33.630Z,19.80
2023-04-07T16:29:00.803Z,20.97
2023-04-07T16:31:29.277Z,26.13
2023-04-07T16:33:56.793Z,18.77
2023-04-07T16:36:23.841Z,20.63
2023-04-07T16:38:51.051Z,23.07
2023-04-07T16:41:18.184Z,22.20
2023-04-07T16:43:45.302Z,25.03
2023-04-07T16:46:12.401Z,20.60
2023-04-07T16:48:40.805Z,19.50
2023-04-07T16:51:07.890Z,25.60
2023-04-07T16:53:35.009Z,27.10
2023-04-07T16:56:02.056Z,19.70
2023-04-07T16:58:29.202Z,28.57
2023-04-07T17:00:56.372Z,26.63
2023-04-07T17:03:23.704Z,28.73
2023-04-07T17:05:52.332Z,24.83
2023-04-07T17:08:19.389Z,21.60
2023-04-07T17:10:46.590Z,31.53
2023-04-07T17:13:13.764Z,23.37
2023-04-07T17:15:40.935Z,29.27
2023-04-07T17:18:08.188Z,24.33
2023-04-07T17:20:35.333Z,33.17
2023-04-07T17:23:03.871Z,37.23
2023-04-07T17:25:30.888Z,36.60
2023-04-07T17:27:57.998Z,27.50
2023-04-07T17:30:25.028Z,37.87
2023-04-07T17:32:52.652Z,28.27
2023-04-07T17:35:19.980Z,28.97
2023-04-07T17:37:47.087Z,31.00
2023-04-07T17:40:15.525Z,32.53
2023-04-07T17:42:42.640Z,30.80
2023-04-07T17:45:09.987Z,34.33
2023-04-07T17:47:38.191Z,34.47
2023-04-07T17:50:05.685Z,33.13
2023-04-07T17:52:32.749Z,31.40
2023-04-07T17:54:59.840Z,25.50
2023-04-07T17:57:28.296Z,33.73
2023-04-07T17:59:55.352Z,30.00
2023-04-07T18:02:22.579Z,38.20
2023-04-07T18:04:49.837Z,32.23
2023-04-07T18:07:16.931Z,34.10
2023-04-07T18:09:43.992Z,41.60
2023-04-07T18:12:11.143Z,32.37
2023-04-07T18:14:39.533Z,30.23
2023-04-07T18:17:06.621Z,30.50
2023-04-07T18:19:33.750Z,32.37
2023-04-07T18:22:00.936Z,33.27
2023-04-07T18:24:28.347Z,30.13
2023-04-07T18:26:55.506Z,30.00
2023-04-07T18:29:22.673Z,35.17
2023-04-07T18:31:51.322Z,23.93
2023-04-07T18:34:18.504Z,26.70
2023-04-07T18:36:45.600Z,22.67
2023-04-07T18:39:12.732Z,24.83
2023-04-07T18:41:40.474Z,25.33
2023-04-07T18:44:07.494Z,27.10
2023-04-07T18:46:34.590Z,21.67
2023-04-07T18:49:03.063Z,32.33
2023-04-07T18:51:30.304Z,30.93
2023-04-07T18:53:57.757Z,27.47
2023-04-07T18:56:25.018Z,24.80
2023-04-07T18:58:52.073Z,33.20
2023-04-07T19:01:19.262Z,29.77
2023-04-07T19:03:46.694Z,31.23
2023-04-07T19:06:16.061Z,32.13
2023-04-07T19:08:43.316Z,31.23
2023-04-07T19:11:10.402Z,37.63
2023-04-07T19:13:37.493Z,38.73
2023-04-07T19:16:04.802Z,27.63
2023-04-07T19:18:32.008Z,37.90
2023-04-07T19:20:59.087Z,27.60
2023-04-07T19:23:27.618Z,32.23
2023-04-07T19:25:54.813Z,27.53
2023-04-07T19:28:22.158Z,34.60
2023-04-07T19:30:49.211Z,37.53
2023-04-07T19:33:16.300Z,33.27
2023-04-07T19:35:43.467Z,40.23
2023-04-07T19:38:10.584Z,40.07
2023-04-07T19:40:38.993Z,32.40
2023-04-07T19:43:06.051Z,39.30
2023-04-07T19:45:33.177Z,35.47
2023-04-07T19:48:00.359Z,51.03
2023-04-07T19:50:27.590Z,39.00
2023-04-07T19:52:54.663Z,42.40
2023-04-07T19:55:21.868Z,34.67
2023-04-07T19:57:50.361Z,36.80
2023-04-07T20:00:17.811Z,35.27
2023-04-07T20:02:51.960Z,35.40
2023-04-07T20:05:19.115Z,39.57
2023-04-07T20:07:46.267Z,34.40
2023-04-07T20:10:13.388Z,33.20
2023-04-07T20:12:40.445Z,31.70
2023-04-07T20:15:09.765Z,40.77
2023-04-07T20:17:36.935Z,35.63
2023-04-07T20:20:04.238Z,30.47
2023-04-07T20:22:31.332Z,34.53
2023-04-07T20:24:58.655Z,35.20
2023-04-07T20:27:25.701Z,30.40
2023-04-07T20:29:52.832Z,31.80
2023-04-07T20:32:21.291Z,34.07
2023-04-07T20:34:48.355Z,39.07
2023-04-07T20:37:15.404Z,38.07
2023-04-07T20:39:42.473Z,39.23
2023-04-07T20:42:09.638Z,33.17
2023-04-07T20:44:36.738Z,43.70
2023-04-07T20:47:07.503Z,37.53
2023-04-07T20:49:35.897Z,37.70
2023-04-07T20:52:03.124Z,38.87
2023-04-07T20:54:30.206Z,33.43
2023-04-07T20:56:57.265Z,32.87
2023-04-07T20:59:24.412Z,32.93
2023-04-07T21:01:51.522Z,32.57
2023-04-07T21:04:18.834Z,45.70
2023-04-07T21:06:47.347Z,36.60
2023-04-07T21:09:14.411Z,53.37
2023-04-07T21:11:41.466Z,44.03
2023-04-07T21:14:08.541Z,38.87
2023-04-07T21:16:35.597Z,42.00
2023-04-07T21:19:02.660Z,41.73
2023-04-07T21:21:29.786Z,45.40
2023-04-07T21:23:58.204Z,40.87
2023-04-07T21:26:25.326Z,44.07
2023-04-07T21:28:52.480Z,41.47
2023-04-07T21:31:22.908Z,42.83
2023-04-07T21:33:50.271Z,38.90
2023-04-07T21:36:17.342Z,53.27
2023-04-07T21:38:44.372Z,40.97
2023-04-07T21:41:12.701Z,46.87
2023-04-07T21:43:39.766Z,44.43
2023-04-07T21:46:06.811Z,54.00
2023-04-07T21:48:33.881Z,53.70
2023-04-07T21:51:00.997Z,43.63
2023-04-07T21:53:28.222Z,44.97
2023-04-07T21:55:55.326Z,49.23
2023-04-07T21:58:23.854Z,48.63
2023-04-07T22:00:50.912Z,49.53
2023-04-07T22:03:18.105Z,48.77
2023-04-07T22:05:45.385Z,46.10
2023-04-07T22:08:12.626Z,47.60
2023-04-07T22:10:39.794Z,49.53
2023-04-07T22:13:06.866Z,55.47
2023-04-07T22:15:35.386Z,55.70
2023-04-07T22:18:02.604Z,56.73
2023-04-07T22:20:29.704Z,55.67
2023-04-07T22:22:56.854Z,55.93
2023-04-07T22:25:23.898Z,57.17
2023-04-07T22:27:51.012Z,65.60
2023-04-07T22:30:18.334Z,48.53
2023-04-07T22:32:46.773Z,50.93
2023-04-07T22:35:13.967Z,61.53
2023-04-07T22:37:41.025Z,56.70
2023-04-07T22:40:08.927Z,51.70
2023-04-07T22:42:36.046Z,49.90
2023-04-07T22:45:03.253Z,46.77
2023-04-07T22:47:30.349Z,62.43
2023-04-07T22:49:58.798Z,61.47
2023-04-07T22:52:25.871Z,64.97
2023-04-07T22:54:52.906Z,69.70
2023-04-07T22:57:19.969Z,60.57
2023-04-07T22:59:47.050Z,57.97
2023-04-07T23:02:14.312Z,66.10
2023-04-07T23:04:41.365Z,63.20
2023-04-07T23:07:09.822Z,56.87
2023-04-07T23:09:36.876Z,59.10
2023-04-07T23:12:03.979Z,69.20
2023-04-07T23:14:31.090Z,60.97
2023-04-07T23:16:58.261Z,65.90
2023-04-07T23:19:25.525Z,69.40
2023-04-07T23:21:52.614Z,57.30
2023-04-07T23:24:21.048Z,53.63
2023-04-07T23:26:48.205Z,52.53
2023-04-07T23:29:15.325Z,52.17
2023-04-07T23:31:42.465Z,57.77
2023-04-07T23:34:09.513Z,52.20
2023-04-07T23:36:36.705Z,61.77
2023-04-07T23:39:03.802Z,57.43
2023-04-07T23:41:32.190Z,52.13
2023-04-07T23:43:59.413Z,57.10
2023-04-07T23:46:26.722Z,52.77
2023-04-07T23:48:53.884Z,51.57
2023-04-07T23:51:21.044Z,55.57
2023-04-07T23:53:48.166Z,55.07
2023-04-07T23:56:15.423Z,46.80
2023-04-07T23:58:43.894Z,46.60
